createdAt,value
2023-02-11T00:01:07.185Z,0.49
2023-02-11T00:03:33.631Z,0.63
2023-02-11T00:06:02.483Z,0.57
2023-02-11T00:08:28.859Z,0.63
2023-02-11T00:10:57.407Z,0.63
2023-02-11T00:13:25.106Z,0.70
2023-02-11T00:15:51.781Z,0.60
2023-02-11T00:18:18.423Z,0.66
2023-02-11T00:20:44.815Z,0.72
2023-02-11T00:23:11.201Z,0.77
2023-02-11T00:25:45.131Z,0.70
2023-02-11T00:28:11.966Z,0.75
2023-02-11T00:30:38.560Z,0.83
2023-02-11T00:33:05.024Z,1.03
2023-02-11T00:35:31.382Z,1.07
2023-02-11T00:37:57.942Z,1.20
2023-02-11T00:40:24.504Z,1.22
2023-02-11T00:42:50.928Z,1.24
2023-02-11T00:45:17.438Z,1.18
2023-02-11T00:47:43.821Z,1.35
2023-02-11T00:50:10.238Z,1.54
2023-02-11T00:52:36.629Z,1.62
2023-02-11T00:55:03.065Z,1.70
2023-02-11T00:57:29.500Z,1.77
2023-02-11T00:59:55.855Z,1.81
2023-02-11T01:02:22.224Z,1.81
2023-02-11T01:04:48.697Z,1.77
2023-02-11T01:07:15.126Z,2.04
2023-02-11T01:09:41.469Z,2.07
2023-02-11T01:12:07.864Z,2.09
2023-02-11T01:14:34.242Z,1.93
2023-02-11T01:17:00.620Z,2.07
2023-02-11T01:19:27.025Z,2.11
2023-02-11T01:21:53.388Z,2.11
2023-02-11T01:24:19.766Z,2.04
2023-02-11T01:26:46.156Z,2.11
2023-02-11T01:29:12.557Z,2.20
2023-02-11T01:31:39.129Z,1.96
2023-02-11T01:34:06.693Z,1.98
2023-02-11T01:36:33.125Z,1.92
2023-02-11T01:39:00.062Z,1.89
2023-02-11T01:41:26.455Z,1.83
2023-02-11T01:43:52.829Z,1.82
2023-02-11T01:46:36.622Z,1.75
2023-02-11T01:49:15.027Z,1.80
2023-02-11T01:51:46.831Z,1.81
2023-02-11T01:54:37.135Z,1.79
2023-02-11T01:57:24.677Z,1.92
2023-02-11T02:00:09.766Z,1.83
2023-02-11T02:02:43.788Z,1.81
2023-02-11T02:05:35.617Z,2.03
2023-02-11T02:08:27.634Z,1.97
2023-02-11T02:10:56.461Z,1.95
2023-02-11T02:13:24.794Z,1.96
2023-02-11T02:15:55.675Z,2.00
2023-02-11T02:18:42.399Z,2.03
2023-02-11T02:21:46.429Z,2.06
2023-02-11T02:24:39.704Z,1.91
2023-02-11T02:27:26.271Z,1.95
2023-02-11T02:30:17.409Z,1.83
2023-02-11T02:32:53.771Z,1.95
2023-02-11T02:35:51.889Z,1.94
2023-02-11T02:38:27.624Z,1.86
2023-02-11T02:40:59.264Z,1.72
2023-02-11T02:43:27.491Z,1.86
2023-02-11T02:45:54.171Z,1.92
2023-02-11T02:48:29.988Z,2.01
2023-02-11T02:51:16.826Z,2.04
2023-02-11T02:53:49.036Z,1.98
2023-02-11T02:56:23.489Z,1.87
2023-02-11T02:59:10.175Z,1.90
2023-02-11T03:01:58.506Z,1.74
2023-02-11T03:04:41.782Z,1.82
2023-02-11T03:07:27.366Z,1.76
2023-02-11T03:10:17.622Z,1.71
2023-02-11T03:12:47.073Z,1.71
2023-02-11T03:15:14.929Z,1.67
2023-02-11T03:17:47.574Z,1.59
2023-02-11T03:20:17.484Z,1.55
2023-02-11T03:22:52.820Z,1.56
2023-02-11T03:25:20.607Z,1.44
2023-02-11T03:27:53.863Z,1.44
2023-02-11T03:30:35.182Z,1.40
2023-02-11T03:33:10.564Z,1.54
2023-02-11T03:35:47.308Z,1.40
2023-02-11T03:38:34.830Z,1.40
2023-02-11T03:41:03.336Z,1.53
2023-02-11T03:43:42.736Z,1.53
2023-02-11T03:46:11.921Z,1.48
2023-02-11T03:48:43.734Z,1.51
2023-02-11T03:51:12.405Z,1.50
2023-02-11T03:53:42.832Z,1.49
2023-02-11T03:56:13.019Z,1.48
2023-02-11T03:58:39.430Z,1.50
2023-02-11T04:01:09.711Z,1.57
2023-02-11T04:03:36.306Z,1.48
2023-02-11T04:06:02.755Z,1.54
2023-02-11T04:08:29.155Z,1.70
2023-02-11T04:10:55.557Z,1.70
2023-02-11T04:13:22.432Z,1.84
2023-02-11T04:15:49.210Z,1.71
2023-02-11T04:18:15.665Z,1.69
2023-02-11T04:20:42.277Z,1.75
2023-02-11T04:23:10.110Z,1.83
2023-02-11T04:25:36.597Z,1.80
2023-02-11T04:28:03.081Z,1.79
2023-02-11T04:30:29.547Z,1.77
2023-02-11T04:32:55.925Z,1.79
2023-02-11T04:35:22.311Z,1.74
2023-02-11T04:37:48.706Z,1.61
2023-02-11T04:40:15.086Z,1.51
2023-02-11T04:42:41.448Z,1.46
2023-02-11T04:45:08.276Z,1.40
2023-02-11T04:47:34.858Z,1.35
2023-02-11T04:50:01.256Z,1.31
2023-02-11T04:52:27.612Z,1.20
2023-02-11T04:54:53.984Z,1.10
2023-02-11T04:57:20.322Z,1.00
2023-02-11T04:59:46.723Z,0.99
2023-02-11T05:02:13.082Z,0.96
2023-02-11T05:04:39.493Z,0.88
2023-02-11T05:07:05.848Z,0.77
2023-02-11T05:09:32.428Z,0.82
2023-02-11T05:11:58.800Z,0.69
2023-02-11T05:14:25.181Z,0.64
2023-02-11T05:16:51.686Z,0.57
2023-02-11T05:19:18.079Z,0.49
2023-02-11T05:22:00.210Z,0.50
2023-02-11T05:24:28.302Z,0.45
2023-02-11T05:26:54.674Z,0.50
2023-02-11T05:29:21.086Z,0.45
2023-02-11T05:31:47.454Z,0.35
2023-02-11T05:34:13.817Z,0.38
2023-02-11T05:36:40.254Z,0.44
2023-02-11T05:39:06.755Z,0.33
2023-02-11T05:41:33.142Z,0.25
2023-02-11T05:43:59.516Z,0.38
2023-02-11T05:46:26.000Z,0.33
2023-02-11T05:48:52.405Z,0.30
2023-02-11T05:51:18.830Z,0.25
2023-02-11T05:53:45.214Z,0.34
2023-02-11T05:56:12.458Z,0.25
2023-02-11T05:58:39.084Z,0.24
2023-02-11T06:01:05.491Z,0.21
2023-02-11T06:03:32.035Z,0.23
2023-02-11T06:05:58.509Z,0.15
2023-02-11T06:08:25.054Z,0.28
2023-02-11T06:10:51.446Z,0.29
2023-02-11T06:13:19.460Z,0.35
2023-02-11T06:15:55.027Z,0.30
2023-02-11T06:18:21.394Z,0.35
2023-02-11T06:20:47.750Z,0.34
2023-02-11T06:23:14.102Z,0.31
2023-02-11T06:25:40.530Z,0.37
2023-02-11T06:28:06.923Z,0.46
2023-02-11T06:30:33.334Z,0.41
2023-02-11T06:32:59.695Z,0.42
2023-02-11T06:35:26.082Z,0.40
2023-02-11T06:37:53.884Z,0.42
2023-02-11T06:40:20.620Z,0.43
2023-02-11T06:42:47.066Z,0.63
2023-02-11T06:45:13.495Z,0.89
2023-02-11T06:47:40.718Z,0.95
2023-02-11T06:50:08.966Z,0.75
2023-02-11T06:52:35.350Z,0.70
2023-02-11T06:55:02.501Z,0.68
2023-02-11T06:57:30.750Z,0.65
2023-02-11T06:59:57.257Z,0.59
2023-02-11T07:02:23.688Z,0.58
2023-02-11T07:04:50.189Z,0.55
2023-02-11T07:07:16.568Z,0.53
2023-02-11T07:09:43.059Z,0.46
2023-02-11T07:12:11.349Z,0.43
2023-02-11T07:14:37.940Z,0.40
2023-02-11T07:17:04.804Z,0.46
2023-02-11T07:19:31.223Z,0.45
2023-02-11T07:21:57.608Z,0.50
2023-02-11T07:24:24.878Z,0.55
2023-02-11T07:26:51.241Z,0.67
2023-02-11T07:29:17.608Z,0.74
2023-02-11T07:31:44.152Z,0.76
2023-02-11T07:34:10.756Z,0.82
2023-02-11T07:36:37.581Z,0.87
2023-02-11T07:39:04.006Z,0.87
2023-02-11T07:41:30.449Z,1.03
2023-02-11T07:43:56.927Z,0.96
2023-02-11T07:46:27.260Z,1.15
2023-02-11T07:48:54.914Z,1.39
2023-02-11T07:51:24.354Z,1.40
2023-02-11T07:53:52.008Z,1.40
2023-02-11T07:56:20.207Z,1.59
2023-02-11T07:58:46.618Z,1.75
2023-02-11T08:01:17.580Z,1.67
2023-02-11T08:03:44.312Z,1.73
2023-02-11T08:06:13.228Z,1.76
2023-02-11T08:08:40.091Z,1.81
2023-02-11T08:11:13.978Z,1.86
2023-02-11T08:13:40.712Z,1.82
2023-02-11T08:16:08.270Z,1.84
2023-02-11T08:18:35.672Z,2.03
2023-02-11T08:21:09.525Z,2.09
2023-02-11T08:23:38.025Z,2.18
2023-02-11T08:26:10.149Z,2.18
2023-02-11T08:28:38.320Z,2.27
2023-02-11T08:31:16.801Z,2.23
2023-02-11T08:33:44.106Z,2.31
2023-02-11T08:36:19.063Z,2.31
2023-02-11T08:38:45.757Z,2.40
2023-02-11T08:41:14.837Z,2.23
2023-02-11T08:43:42.343Z,2.40
2023-02-11T08:46:10.108Z,2.43
2023-02-11T08:48:36.543Z,2.60
2023-02-11T08:51:10.360Z,2.65
2023-02-11T08:53:37.294Z,2.69
2023-02-11T08:56:03.813Z,2.86
2023-02-11T08:58:30.428Z,2.79
2023-02-11T09:00:56.873Z,2.79
2023-02-11T09:03:23.498Z,2.88
2023-02-11T09:05:52.932Z,2.91
2023-02-11T09:08:20.502Z,2.87
2023-02-11T09:10:47.298Z,2.99
2023-02-11T09:13:14.080Z,3.05
2023-02-11T09:15:40.543Z,3.06
2023-02-11T09:18:07.457Z,3.03
2023-02-11T09:20:34.168Z,3.06
2023-02-11T09:23:00.642Z,3.13
2023-02-11T09:25:27.299Z,3.06
2023-02-11T09:27:54.013Z,3.18
2023-02-11T09:30:21.127Z,3.23
2023-02-11T09:32:47.571Z,3.21
2023-02-11T09:35:14.023Z,3.19
2023-02-11T09:37:40.431Z,3.24
2023-02-11T09:40:07.358Z,3.18
2023-02-11T09:42:38.948Z,3.32
2023-02-11T09:45:17.411Z,3.39
2023-02-11T09:47:50.867Z,3.45
2023-02-11T09:50:38.889Z,3.36
2023-02-11T09:53:11.026Z,3.42
2023-02-11T09:55:44.866Z,3.23
2023-02-11T09:58:17.654Z,3.30
2023-02-11T10:00:48.998Z,3.36
2023-02-11T10:03:27.919Z,3.33
2023-02-11T10:06:28.974Z,3.29
2023-02-11T10:09:26.405Z,3.41
2023-02-11T10:12:02.805Z,3.48
2023-02-11T10:14:48.932Z,3.36
2023-02-11T10:17:50.803Z,3.37
2023-02-11T10:20:52.656Z,3.36
2023-02-11T10:23:22.488Z,3.31
2023-02-11T10:25:52.856Z,3.24
2023-02-11T10:28:22.006Z,3.32
2023-02-11T10:30:54.706Z,3.23
2023-02-11T10:33:33.067Z,3.25
2023-02-11T10:35:59.962Z,3.30
2023-02-11T10:38:27.740Z,3.34
2023-02-11T10:40:54.214Z,3.26
2023-02-11T10:43:24.363Z,3.34
2023-02-11T10:45:53.024Z,3.39
2023-02-11T10:48:38.630Z,3.48
2023-02-11T10:51:13.411Z,3.45
2023-02-11T10:53:40.781Z,3.45
2023-02-11T10:56:10.568Z,3.46
2023-02-11T10:59:01.129Z,3.43
2023-02-11T11:01:44.083Z,3.43
2023-02-11T11:04:45.216Z,3.55
2023-02-11T11:07:14.593Z,3.49
2023-02-11T11:09:48.593Z,3.38
2023-02-11T11:12:31.501Z,3.37
2023-02-11T11:15:14.270Z,3.33
2023-02-11T11:17:40.642Z,3.48
2023-02-11T11:20:20.541Z,3.57
2023-02-11T11:22:49.540Z,3.63
2023-02-11T11:25:24.040Z,3.67
2023-02-11T11:27:52.814Z,3.65
2023-02-11T11:30:20.163Z,3.62
2023-02-11T11:32:46.942Z,3.50
2023-02-11T11:35:28.367Z,3.63
2023-02-11T11:38:03.847Z,3.52
2023-02-11T11:40:32.846Z,3.60
2023-02-11T11:43:22.636Z,3.65
2023-02-11T11:45:56.754Z,3.64
2023-02-11T11:48:31.271Z,3.62
2023-02-11T11:51:01.276Z,3.60
2023-02-11T11:53:51.075Z,3.68
2023-02-11T11:56:22.315Z,3.55
2023-02-11T11:58:50.238Z,3.66
2023-02-11T12:01:28.564Z,3.73
2023-02-11T12:04:20.759Z,3.84
2023-02-11T12:07:02.413Z,3.95
2023-02-11T12:09:40.045Z,3.99
2023-02-11T12:12:22.165Z,3.92
2023-02-11T12:15:11.292Z,4.01
2023-02-11T12:18:02.172Z,3.95
2023-02-11T12:20:36.596Z,3.93
2023-02-11T12:23:37.868Z,4.02
2023-02-11T12:26:22.336Z,4.07
2023-02-11T12:29:42.823Z,4.04
2023-02-11T12:32:33.378Z,4.12
2023-02-11T12:35:12.936Z,4.22
2023-02-11T12:38:02.323Z,4.26
2023-02-11T12:40:42.659Z,4.07
2023-02-11T12:43:34.905Z,4.25
2023-02-11T12:46:32.238Z,4.25
2023-02-11T12:49:17.548Z,4.21
2023-02-11T12:52:04.940Z,4.26
2023-02-11T12:54:45.387Z,4.31
2023-02-11T12:57:28.209Z,4.21
2023-02-11T13:00:05.044Z,4.26
2023-02-11T13:02:54.534Z,4.15
2023-02-11T13:05:29.408Z,4.25
2023-02-11T13:08:04.451Z,4.21
2023-02-11T13:10:37.295Z,4.21
2023-02-11T13:13:17.091Z,4.14
2023-02-11T13:15:51.644Z,4.21
2023-02-11T13:18:44.814Z,4.24
2023-02-11T13:21:48.317Z,4.26
2023-02-11T13:24:17.723Z,4.25
2023-02-11T13:27:06.975Z,4.28
2023-02-11T13:29:42.941Z,4.34
2023-02-11T13:32:12.045Z,4.42
2023-02-11T13:34:41.483Z,4.47
2023-02-11T13:37:36.101Z,4.52
2023-02-11T13:40:06.982Z,4.49
2023-02-11T13:42:34.775Z,4.50
2023-02-11T13:45:01.482Z,4.55
2023-02-11T13:47:32.487Z,4.48
2023-02-11T13:50:01.578Z,4.61
2023-02-11T13:52:37.216Z,4.57
2023-02-11T13:55:24.837Z,4.60
2023-02-11T13:58:06.165Z,4.60
2023-02-11T14:00:35.663Z,4.63
2023-02-11T14:03:29.725Z,4.63
2023-02-11T14:06:26.853Z,4.53
2023-02-11T14:09:14.145Z,4.58
2023-02-11T14:11:43.487Z,4.67
2023-02-11T14:14:13.193Z,4.56
2023-02-11T14:17:01.763Z,4.59
2023-02-11T14:19:40.005Z,4.60
2023-02-11T14:22:47.513Z,4.66
2023-02-11T14:25:25.181Z,4.64
2023-02-11T14:28:06.641Z,4.62
2023-02-11T14:30:43.598Z,4.54
2023-02-11T14:33:25.072Z,4.52
2023-02-11T14:36:26.800Z,4.62
2023-02-11T14:39:08.768Z,4.59
2023-02-11T14:41:43.846Z,4.63
2023-02-11T14:44:17.750Z,4.64
2023-02-11T14:46:47.413Z,4.60
2023-02-11T14:49:27.089Z,4.52
2023-02-11T14:51:59.083Z,4.61
2023-02-11T14:54:28.620Z,4.56
2023-02-11T14:57:19.210Z,4.63
2023-02-11T14:59:59.294Z,4.64
2023-02-11T15:02:32.224Z,4.57
2023-02-11T15:05:21.002Z,4.54
2023-02-11T15:07:50.087Z,4.58
2023-02-11T15:10:26.563Z,4.63
2023-02-11T15:12:53.516Z,4.62
2023-02-11T15:15:20.000Z,4.57
2023-02-11T15:17:46.798Z,4.56
2023-02-11T15:20:21.966Z,4.43
2023-02-11T15:22:54.050Z,4.45
2023-02-11T15:25:21.293Z,4.47
2023-02-11T15:27:53.884Z,4.66
2023-02-11T15:30:23.225Z,4.53
2023-02-11T15:32:50.738Z,4.46
2023-02-11T15:35:18.128Z,4.43
2023-02-11T15:37:45.452Z,4.40
2023-02-11T15:40:18.801Z,4.37
2023-02-11T15:42:56.788Z,4.39
2023-02-11T15:45:34.792Z,4.40
2023-02-11T15:48:14.605Z,4.38
2023-02-11T15:50:43.384Z,4.38
2023-02-11T15:53:21.883Z,4.32
2023-02-11T15:55:51.548Z,4.31
2023-02-11T15:58:18.209Z,4.29
2023-02-11T16:00:54.611Z,4.29
2023-02-11T16:03:28.648Z,4.24
2023-02-11T16:05:59.818Z,4.61
2023-02-11T16:08:32.744Z,4.50
2023-02-11T16:11:03.157Z,4.49
2023-02-11T16:13:33.586Z,4.47
2023-02-11T16:16:05.522Z,4.50
2023-02-11T16:18:39.107Z,4.47
2023-02-11T16:21:17.827Z,4.40
2023-02-11T16:23:52.536Z,4.39
2023-02-11T16:26:24.855Z,4.35
2023-02-11T16:28:52.062Z,4.40
2023-02-11T16:31:19.378Z,4.32
2023-02-11T16:33:45.939Z,4.26
2023-02-11T16:36:14.546Z,4.27
2023-02-11T16:38:40.943Z,4.27
2023-02-11T16:41:07.359Z,4.18
2023-02-11T16:43:33.750Z,4.18
2023-02-11T16:46:00.163Z,4.22
2023-02-11T16:48:26.626Z,4.10
2023-02-11T16:50:53.750Z,4.20
2023-02-11T16:53:23.497Z,4.20
2023-02-11T16:55:51.436Z,4.15
2023-02-11T16:58:18.237Z,4.09
2023-02-11T17:00:46.943Z,4.05
2023-02-11T17:03:25.537Z,4.04
2023-02-11T17:05:55.603Z,4.18
2023-02-11T17:08:22.322Z,4.15
2023-02-11T17:10:48.894Z,4.07
2023-02-11T17:13:15.407Z,4.09
2023-02-11T17:15:41.795Z,4.02
2023-02-11T17:18:12.162Z,4.09
2023-02-11T17:20:38.536Z,4.07
2023-02-11T17:23:04.920Z,4.05
2023-02-11T17:25:31.515Z,3.99
2023-02-11T17:27:58.006Z,4.00
2023-02-11T17:30:25.027Z,4.03
2023-02-11T17:32:51.413Z,4.02
2023-02-11T17:35:17.808Z,3.99
2023-02-11T17:37:44.195Z,3.99
2023-02-11T17:40:11.422Z,3.99
2023-02-11T17:42:37.787Z,3.97
2023-02-11T17:45:04.576Z,3.99
2023-02-11T17:47:31.025Z,4.15
2023-02-11T17:49:57.581Z,4.06
2023-02-11T17:52:24.372Z,4.09
2023-02-11T17:54:51.345Z,4.07
2023-02-11T17:57:17.834Z,3.99
2023-02-11T17:59:44.354Z,4.01
2023-02-11T18:02:12.557Z,3.98
2023-02-11T18:04:39.887Z,4.08
2023-02-11T18:07:07.008Z,4.05
2023-02-11T18:09:38.890Z,4.22
2023-02-11T18:12:06.426Z,4.21
2023-02-11T18:14:33.921Z,4.08
2023-02-11T18:17:00.582Z,4.13
2023-02-11T18:19:30.411Z,4.06
2023-02-11T18:21:59.747Z,4.04
2023-02-11T18:24:27.322Z,3.98
2023-02-11T18:26:53.765Z,4.06
2023-02-11T18:29:20.154Z,3.99
2023-02-11T18:31:46.556Z,4.03
2023-02-11T18:34:12.974Z,3.95
2023-02-11T18:36:39.420Z,4.11
2023-02-11T18:39:06.221Z,4.08
2023-02-11T18:41:32.634Z,4.13
2023-02-11T18:44:02.584Z,4.07
2023-02-11T18:46:29.708Z,4.14
2023-02-11T18:48:56.443Z,4.18
2023-02-11T18:51:23.162Z,4.13
2023-02-11T18:53:49.567Z,4.20
2023-02-11T18:56:19.257Z,4.26
2023-02-11T18:58:45.751Z,4.25
2023-02-11T19:01:16.629Z,4.24
2023-02-11T19:03:44.192Z,4.17
2023-02-11T19:06:16.127Z,4.21
2023-02-11T19:08:42.864Z,4.15
2023-02-11T19:11:09.902Z,4.24
2023-02-11T19:13:36.486Z,4.21
2023-02-11T19:16:11.039Z,4.26
2023-02-11T19:18:38.671Z,4.24
2023-02-11T19:21:12.221Z,4.22
2023-02-11T19:23:38.733Z,4.21
2023-02-11T19:26:06.299Z,4.16
2023-02-11T19:28:35.202Z,4.31
2023-02-11T19:31:06.864Z,4.22
2023-02-11T19:33:33.379Z,4.31
2023-02-11T19:36:07.626Z,4.27
2023-02-11T19:38:34.569Z,4.30
2023-02-11T19:41:00.974Z,4.25
2023-02-11T19:43:27.867Z,4.29
2023-02-11T19:45:56.264Z,4.40
2023-02-11T19:48:24.174Z,4.36
2023-02-11T19:50:50.667Z,4.38
2023-02-11T19:53:17.122Z,4.28
2023-02-11T19:55:43.512Z,4.34
2023-02-11T19:58:09.920Z,4.40
2023-02-11T20:00:36.387Z,4.44
2023-02-11T20:03:02.829Z,4.35
2023-02-11T20:05:29.226Z,4.44
2023-02-11T20:07:55.601Z,4.38
2023-02-11T20:10:23.586Z,4.39
2023-02-11T20:12:50.033Z,4.37
2023-02-11T20:15:16.549Z,4.34
2023-02-11T20:17:43.016Z,4.46
2023-02-11T20:20:09.787Z,4.48
2023-02-11T20:22:36.203Z,4.35
2023-02-11T20:25:02.611Z,4.41
2023-02-11T20:27:32.051Z,4.41
2023-02-11T20:29:58.413Z,4.40
2023-02-11T20:32:24.830Z,4.36
2023-02-11T20:34:51.187Z,4.35
2023-02-11T20:37:17.737Z,4.33
2023-02-11T20:39:45.064Z,4.40
2023-02-11T20:42:12.051Z,4.31
2023-02-11T20:44:38.884Z,4.29
2023-02-11T20:47:05.359Z,4.25
2023-02-11T20:49:32.084Z,4.26
2023-02-11T20:51:58.469Z,4.33
2023-02-11T20:54:25.554Z,4.24
2023-02-11T20:56:53.871Z,4.22
2023-02-11T20:59:23.564Z,4.27
2023-02-11T21:01:53.565Z,4.25
2023-02-11T21:04:25.507Z,4.22
2023-02-11T21:06:57.865Z,4.36
2023-02-11T21:09:27.502Z,4.42
2023-02-11T21:11:54.617Z,4.42
2023-02-11T21:14:23.196Z,4.43
2023-02-11T21:16:50.366Z,4.35
2023-02-11T21:19:17.358Z,4.41
2023-02-11T21:21:44.380Z,4.45
2023-02-11T21:24:11.043Z,4.48
2023-02-11T21:26:37.895Z,4.42
2023-02-11T21:29:06.104Z,4.41
2023-02-11T21:31:34.288Z,4.35
2023-02-11T21:34:01.183Z,4.22
2023-02-11T21:36:29.080Z,4.32
2023-02-11T21:38:55.595Z,4.18
2023-02-11T21:41:22.919Z,4.17
2023-02-11T21:43:49.926Z,4.12
2023-02-11T21:46:17.614Z,4.18
2023-02-11T21:48:44.001Z,4.11
2023-02-11T21:51:19.745Z,4.20
2023-02-11T21:53:46.613Z,4.27
2023-02-11T21:56:17.867Z,4.19
2023-02-11T21:58:45.678Z,4.16
2023-02-11T22:01:20.056Z,4.20
2023-02-11T22:03:47.325Z,4.15
2023-02-11T22:06:16.724Z,4.16
2023-02-11T22:08:43.232Z,4.15
2023-02-11T22:11:12.236Z,4.26
2023-02-11T22:13:39.517Z,4.17
2023-02-11T22:16:08.594Z,4.15
2023-02-11T22:18:35.914Z,4.18
2023-02-11T22:21:04.195Z,4.11
2023-02-11T22:23:31.637Z,4.09
2023-02-11T22:25:58.964Z,4.14
2023-02-11T22:28:26.111Z,4.13
2023-02-11T22:30:56.381Z,4.13
2023-02-11T22:33:24.628Z,4.05
2023-02-11T22:36:01.743Z,4.04
2023-02-11T22:38:29.439Z,4.06
2023-02-11T22:40:55.789Z,4.09
2023-02-11T22:43:22.342Z,4.12
2023-02-11T22:45:49.370Z,4.04
2023-02-11T22:48:15.878Z,4.02
2023-02-11T22:50:42.283Z,3.98
2023-02-11T22:53:09.067Z,4.14
2023-02-11T22:55:39.919Z,4.06
2023-02-11T22:58:06.529Z,4.04
2023-02-11T23:00:38.023Z,4.06
2023-02-11T23:03:07.217Z,4.01
2023-02-11T23:05:40.960Z,3.93
2023-02-11T23:08:09.066Z,4.03
2023-02-11T23:10:37.362Z,4.00
2023-02-11T23:13:04.421Z,4.05
2023-02-11T23:15:31.564Z,4.03
2023-02-11T23:17:58.012Z,4.01
2023-02-11T23:20:24.516Z,4.05
2023-02-11T23:22:50.859Z,3.97
2023-02-11T23:25:17.369Z,4.18
2023-02-11T23:27:43.734Z,4.07
2023-02-11T23:30:10.553Z,4.15
2023-02-11T23:32:40.794Z,4.15
2023-02-11T23:35:07.420Z,4.13
2023-02-11T23:37:33.827Z,4.21
2023-02-11T23:40:00.217Z,4.13
2023-02-11T23:42:26.587Z,4.21
2023-02-11T23:44:52.961Z,4.12
2023-02-11T23:47:19.468Z,4.05
2023-02-11T23:49:45.870Z,4.18
2023-02-11T23:52:12.224Z,4.13
2023-02-11T23:54:38.607Z,4.11
2023-02-11T23:57:05.004Z,4.23
2023-02-11T23:59:31.409Z,4.08
